Cedar Bonnet Island, New Jersey
Current Conditions -  °F | °C
As of 12:35 PM on Saturday 25 Oct 2014 (Local Time) from KMJX Reporting Station
Clear Clear  
Wind Chill: 64°   Ceiling: Unl
Heat Index: 64°   Visibility: 10mi
Dew Point: 41°   Wind: 10mph
Humidity: 42%   Direction: 280°W
Pressure: 29.83"   Gusts: 20mph
Location:  39.7102°N, 74.2577°W
Report Text: KMJX 251635Z AUTO 28009G17KT 260V320 10SM CLR 18/05 A2983 RMK AO1
Loading
Personal Weather Stations






























Interactive Weather Map
Tropical Storm Tracking
New forecast layout! Learn more

10-Day Weather Forecast

Advertisements
Track Severe Weather on mobile